ADDS METAR Data INFO
IDs: Format: Raw Decoded Include TAF

Data at: 2206 UTC 24 Feb 2018

KCEW 242153Z AUTO 21008KT 10SM OVC050 25/17 A3009 RMK AO2 SLP186 T02500167 $
KCEW 242053Z AUTO 20016G19KT 10SM FEW029 SCT037 BKN060 26/18 A3010 RMK AO2 SLP190 T02560178 56021 $
KCEW 241953Z AUTO 19012G18KT 10SM SCT065 26/17 A3011 RMK AO2 SLP194 T02560172 $
KCEW 241853Z AUTO 20012G17KT 10SM FEW060 27/18 A3013 RMK AO2 SLP201 T02670178 $
KCEW 241753Z AUTO 19009KT 10SM SCT033 SCT049 27/18 A3016 RMK AO2 SLP211 T02670178 10272 20161 58016 $
KCEW 241653Z AUTO 18009G17KT 130V210 10SM SCT027 BKN033 BKN042 26/18 A3020 RMK AO2 SLP222 T02610178 $
KCEW 241638Z AUTO 19012KT 10SM FEW022 SCT029 BKN036 26/18 A3020 RMK AO2 T02560178 $
KCEW 241553Z AUTO 19006KT 10SM BKN015 BKN022 BKN030 24/19 A3020 RMK AO2 SLP225 T02390189 $
KCEW 241544Z AUTO 18008KT 10SM BKN015 OVC022 23/19 A3021 RMK AO2 T02330189 $
KCEW 241501Z AUTO VRB05KT 10SM BKN010 OVC014 22/19 A3021 RMK AO2 CIG 007V012 T02220189 $
KCEW 241453Z AUTO VRB04KT 10SM BKN008 OVC012 22/19 A3021 RMK AO2 SLP227 T02170189 51009 $
KCEW 241353Z AUTO 14005KT 10SM OVC005 19/18 A3021 RMK AO2 SLP227 T01940183 $
KCEW 241346Z AUTO 15005KT 10SM OVC004 19/19 A3021 RMK AO2 T01940189 $
KCEW 241253Z AUTO 15004KT 5SM BR BKN007 OVC012 19/18 A3020 RMK AO2 CIG 004V009 SLP224 T01890183 $
KCEW 241217Z AUTO 00000KT 3SM BR BKN006 OVC009 18/17 A3019 RMK AO2 T01780172 $
KCEW 241212Z AUTO 00000KT 1SM BR BKN006 OVC009 18/17 A3019 RMK AO2 T01780172 $
KCEW 241153Z AUTO 00000KT 1/4SM FG VV008 16/16 A3018 RMK AO2 SLP218 T01610156 10194 20161 55000 $
KCEW 241150Z AUTO 00000KT 1/4SM FG VV008 16/16 A3018 RMK AO2 $
KCEW 241142Z AUTO 00000KT 3/4SM BR VV006 16/16 A3018 RMK AO2 T01610156 $
KCEW 241131Z AUTO 00000KT 2SM BR OVC008 17/16 A3018 RMK AO2 T01670156 $
KCEW 241123Z AUTO 00000KT 1SM BR VV008 17/16 A3018 RMK AO2 T01670161 $
KCEW 241114Z AUTO 00000KT 1/2SM FG BKN007 OVC012 17/16 A3018 RMK AO2 T01720161 $
KCEW 241110Z AUTO 00000KT 3/4SM BR OVC010 17/17 A3018 RMK AO2 T01720167 $
KCEW 241053Z AUTO 00000KT 2 1/2SM BR SCT003 OVC012 17/16 A3018 RMK AO2 SLP218 T01670161 $
KCEW 241038Z AUTO 00000KT 1SM BR BKN003 OVC014 17/17 A3019 RMK AO2 T01720167 $
KCEW 241022Z AUTO 00000KT 1/2SM FG VV004 17/17 A3018 RMK AO2 T01720167 $
KCEW 241013Z AUTO 00000KT 3/4SM BR VV003 18/17 A3018 RMK AO2 T01780172 $
KCEW 240953Z AUTO 00000KT 1/2SM FG VV002 18/17 A3018 RMK AO2 SLP218 T01780172 $
KCEW 240948Z AUTO 00000KT 1/4SM FG VV002 18/17 A3018 RMK AO2 $
KCEW 240926Z AUTO 00000KT 3/4SM BR OVC002 18/17 A3019 RMK AO2 T01780172 $
KCEW 240910Z AUTO 00000KT 1 3/4SM BR OVC002 18/17 A3019 RMK AO2 T01830172 $
KCEW 240853Z AUTO 00000KT 4SM BR OVC002 18/17 A3019 RMK AO2 SLP220 T01830172 58015 $
KCEW 240839Z AUTO 00000KT 4SM BR OVC002 18/17 A3019 RMK AO2 T01780172 $
KCEW 240832Z AUTO 00000KT 1SM BR BKN002 OVC009 18/17 A3019 RMK AO2 VIS 1/2V4 T01780172 $
KCEW 240829Z AUTO 00000KT 1/2SM FG BKN003 OVC009 18/17 A3019 RMK AO2 T01830172 $
KCEW 240821Z AUTO 00000KT 3/4SM BR SCT003 OVC009 18/17 A3019 RMK AO2 VIS 1/4V1 3/4 T01780167 $
KCEW 240813Z AUTO 00000KT 1 3/4SM BR SCT004 OVC010 18/18 A3020 RMK AO2 T01830178 $
KCEW 240807Z AUTO 00000KT 5SM BR SCT004 OVC010 19/18 A3020 RMK AO2 T01890178 $
KCEW 240753Z AUTO 00000KT 6SM BR BKN004 OVC008 19/18 A3020 RMK AO2 SLP224 T01940183 $
KCEW 240743Z AUTO 00000KT 6SM BR OVC004 19/18 A3021 RMK AO2 T01940183 $
KCEW 240705Z AUTO 13004KT 5SM BR BKN008 19/18 A3022 RMK AO2 CIG 006V011 T01890178 $
KCEW 240653Z AUTO 14003KT 4SM BR SCT008 18/17 A3022 RMK AO2 SLP231 T01830172 $
KCEW 240638Z AUTO 00000KT 7SM SCT006 SCT010 19/18 A3022 RMK AO2 T01890178 $
KCEW 240603Z AUTO 00000KT 9SM OVC005 19/18 A3023 RMK AO2 CIG 002V007 T01890178 $
KCEW 240553Z AUTO 17005KT 8SM BKN002 OVC007 19/18 A3023 RMK AO2 CIG 001V005 SLP235 T01940183 10222 20178 402780139 56008 $
KCEW 240510Z AUTO 11003KT 5SM BR BKN004 18/17 A3023 RMK AO2 T01830172 $
KCEW 240501Z AUTO 00000KT 5SM BR SCT005 18/17 A3023 RMK AO2 T01780172 $
KCEW 240453Z AUTO 00000KT 6SM BR FEW110 18/17 A3024 RMK AO2 SLP236 T01830172 $
KCEW 240430Z AUTO 00000KT 8SM FEW006 OVC110 19/18 A3024 RMK AO2 T01940178 $
KCEW 240353Z AUTO VRB03KT 9SM OVC006 19/18 A3025 RMK AO2 SLP242 T01940183 $
KCEW 240316Z AUTO 18003KT 8SM BKN005 19/18 A3026 RMK AO2 T01940183 $
KCEW 240303Z AUTO VRB03KT 8SM FEW004 BKN100 20/18 A3026 RMK AO2 T02000183 $
KCEW 240253Z AUTO 18004KT 8SM BKN100 20/19 A3026 RMK AO2 SLP243 T02000189 58004 $
KCEW 240228Z AUTO 14005KT 8SM SCT006 OVC100 21/19 A3026 RMK AO2 T02060189 $
KCEW 240204Z AUTO 14003KT 8SM BKN007 OVC110 21/19 A3026 RMK AO2 T02060189 $
KCEW 240153Z AUTO 12003KT 8SM SCT006 BKN110 20/19 A3027 RMK AO2 SLP246 T02000189 $
KCEW 240149Z AUTO 12003KT 8SM FEW006 BKN110 20/18 A3027 RMK AO2 $
KCEW 240053Z AUTO 19004KT 10SM FEW095 21/19 A3027 RMK AO2 SLP247 T02110189 $
KCEW 232353Z AUTO 17007KT 10SM CLR 22/19 A3026 RMK AO2 SLP244 T02220189 10278 20222 55006 $
KCEW 232253Z AUTO 19008KT 10SM CLR 25/18 A3025 RMK AO2 SLP241 T02500183 $
KCEW 232153Z AUTO 20010KT 10SM FEW028 26/18 A3026 RMK AO2 SLP244 T02610183 $
KCEW 232119Z AUTO 19009KT 10SM SCT026 26/18 A3027 RMK AO2 T02610183 $
KCEW 232053Z AUTO 18007KT 130V200 10SM BKN026 27/19 A3028 RMK AO2 SLP250 T02670189 57021 $
KCEW 232043Z AUTO 19011KT 10SM BKN026 BKN032 28/19 A3028 RMK AO2 T02780189 $
KCEW 232013Z AUTO 19010G16KT 10SM SCT024 BKN050 BKN060 27/19 A3029 RMK AO2 T02670189 $
KCEW 231953Z AUTO 19008G14KT 10SM SCT024 BKN028 BKN055 26/18 A3030 RMK AO2 SLP257 T02610183 $
KCEW 231907Z AUTO 17008KT 10SM BKN022 26/19 A3031 RMK AO2 T02560189 $
KCEW 231853Z AUTO 20012G16KT 10SM SCT022 27/19 A3032 RMK AO2 SLP264 T02670189 $
KCEW 231805Z AUTO 18009KT 140V200 10SM FEW026 SCT030 BKN070 26/18 A3034 RMK AO2 T02560183 $
KCEW 231753Z AUTO 19010KT 150V210 10SM BKN026 BKN070 27/19 A3034 RMK AO2 SLP271 T02670189 10267 20156 58008 $
KCEW 231734Z AUTO VRB06KT 10SM BKN027 26/18 A3035 RMK AO2 T02610183 $
KCEW 231727Z AUTO 18008KT 140V200 10SM SCT027 27/18 A3035 RMK AO2 T02670183 $
KCEW 231653Z AUTO 18008KT 9SM BKN021 BKN026 BKN070 26/18 A3036 RMK AO2 SLP278 T02560183 $
KCEW 231553Z AUTO 17007KT 140V210 10SM BKN070 25/18 A3037 RMK AO2 SLP281 T02500183 $
KCEW 231453Z AUTO 15007KT 6SM HZ BKN047 BKN065 22/18 A3037 RMK AO2 SLP280 T02220183 53008 $
KCEW 231353Z AUTO 00000KT 7SM FEW033 BKN049 18/17 A3036 RMK AO2 SLP278 T01780167 $
KCEW 231253Z AUTO 07003KT 5SM BR FEW039 SCT047 16/16 A3035 RMK AO2 SLP274 T01610156 $
KCEW 231153Z AUTO 07003KT 5SM BR FEW002 OVC043 16/15 A3034 RMK AO2 SLP272 T01560150 10161 20139 50006 $
KCEW 231151Z AUTO 07003KT 5SM BR FEW002 BKN041 OVC048 16/15 A3034 RMK AO2 $
KCEW 231141Z AUTO 00000KT 2SM BR SCT001 OVC041 16/15 A3034 RMK AO2 T01560150 $
KCEW 231132Z AUTO 08003KT 1 1/4SM BR BKN001 OVC041 15/15 A3034 RMK AO2 T01500150 $
KCEW 231123Z AUTO 08004KT 3/4SM BR BKN001 BKN041 OVC050 16/15 A3034 RMK AO2 T01560150 $
KCEW 231053Z AUTO 08003KT 1/2SM FG VV001 15/14 A3033 RMK AO2 SLP268 T01500144 $